Time;durP1;ratioP1;P1;durP2;ratioP2;P2;SDS_P1;SDS_P2;PMS_P1;PMS_P2;Temp;Humidity;BMP_temperature;BMP_pressure;BME280_temperature;BME280_humidity;BME280_pressure;Samples;Min_cycle;Max_cycle;Signal;HPM_P1;HPM_P2
2022/07/22 00:00:05;;;;;;;7.00;6.10;;;17.70;99.90;;;;;;483391;245;28778;-70
2022/07/22 00:02:07;;;;;;;8.03;6.57;;;17.70;99.90;;;;;;483418;245;28948;-69
2022/07/22 00:04:08;;;;;;;6.70;6.10;;;17.70;99.90;;;;;;483395;245;28869;-69
2022/07/22 00:06:09;;;;;;;7.33;6.63;;;17.60;99.90;;;;;;483337;245;28952;-69
2022/07/22 00:08:10;;;;;;;7.03;6.43;;;17.40;99.90;;;;;;483419;245;28942;-71
2022/07/22 00:10:12;;;;;;;7.37;6.67;;;17.30;99.90;;;;;;483434;246;29238;-68
2022/07/22 00:12:13;;;;;;;6.80;6.10;;;17.30;99.90;;;;;;483435;245;29288;-70
2022/07/22 00:14:14;;;;;;;5.90;5.40;;;17.40;99.90;;;;;;483429;245;29257;-68
2022/07/22 00:16:15;;;;;;;5.97;5.37;;;17.40;99.90;;;;;;483377;245;28813;-70
2022/07/22 00:18:17;;;;;;;7.00;6.40;;;17.50;99.90;;;;;;483359;246;28838;-69
2022/07/22 00:20:19;;;;;;;6.67;6.07;;;17.50;99.90;;;;;;483420;245;28810;-68
2022/07/22 00:22:19;;;;;;;6.90;6.30;;;17.40;99.90;;;;;;483385;246;28821;-71
2022/07/22 00:24:20;;;;;;;6.60;6.10;;;17.20;99.90;;;;;;483383;246;28858;-68
2022/07/22 00:26:22;;;;;;;7.13;6.43;;;17.10;99.90;;;;;;483353;246;28833;-69
2022/07/22 00:28:23;;;;;;;5.73;5.23;;;17.10;99.90;;;;;;483412;245;28805;-69
2022/07/22 00:30:24;;;;;;;6.20;5.60;;;17.10;99.90;;;;;;483416;245;28784;-70
2022/07/22 00:32:25;;;;;;;6.23;5.63;;;17.10;99.90;;;;;;483429;243;28905;-72
2022/07/22 00:34:27;;;;;;;5.93;5.23;;;17.10;99.90;;;;;;483319;245;29289;-70
2022/07/22 00:36:28;;;;;;;5.67;5.17;;;17.00;99.90;;;;;;483319;246;29391;-71
2022/07/22 00:38:29;;;;;;;6.20;5.70;;;16.70;99.90;;;;;;483384;246;30033;-68
2022/07/22 00:40:30;;;;;;;6.73;6.13;;;16.60;99.90;;;;;;483419;245;29330;-68
2022/07/22 00:42:33;;;;;;;6.90;6.30;;;16.60;99.90;;;;;;483421;245;28809;-69
2022/07/22 00:44:33;;;;;;;6.37;5.87;;;16.60;99.90;;;;;;483326;246;28854;-69
2022/07/22 00:46:34;;;;;;;6.90;6.23;;;16.70;99.90;;;;;;483343;245;28829;-69
2022/07/22 00:48:36;;;;;;;6.20;5.70;;;16.60;99.90;;;;;;483398;245;28837;-68
2022/07/22 00:50:37;;;;;;;6.00;5.50;;;16.60;99.90;;;;;;483413;245;28854;-69
2022/07/22 00:52:38;;;;;;;6.50;5.90;;;16.70;99.90;;;;;;483403;245;28828;-69
2022/07/22 00:54:39;;;;;;;6.17;5.40;;;16.80;99.90;;;;;;483382;245;28783;-68
2022/07/22 00:56:41;;;;;;;6.13;5.47;;;16.80;99.90;;;;;;483355;245;28835;-69
2022/07/22 00:58:42;;;;;;;5.83;5.33;;;16.80;99.90;;;;;;483398;245;29476;-72
2022/07/22 01:00:43;;;;;;;6.20;5.63;;;16.90;99.90;;;;;;483405;245;29243;-69
2022/07/22 01:02:44;;;;;;;5.80;5.40;;;16.90;99.90;;;;;;483418;245;29296;-70
2022/07/22 01:04:46;;;;;;;6.57;6.00;;;16.90;99.90;;;;;;483394;246;29416;-68
2022/07/22 01:06:47;;;;;;;6.60;6.00;;;16.90;99.90;;;;;;483338;246;28905;-70
2022/07/22 01:08:48;;;;;;;6.77;6.10;;;16.90;99.90;;;;;;483342;245;28848;-68
2022/07/22 01:10:49;;;;;;;6.80;6.20;;;16.90;99.90;;;;;;483421;245;28847;-69
2022/07/22 01:12:51;;;;;;;6.80;6.03;;;16.80;99.90;;;;;;483395;245;28837;-69
2022/07/22 01:14:52;;;;;;;7.30;6.70;;;16.60;99.90;;;;;;483396;246;28860;-68
2022/07/22 01:16:53;;;;;;;6.73;6.13;;;16.50;99.90;;;;;;483324;245;28922;-69
2022/07/22 01:18:54;;;;;;;6.60;6.00;;;16.60;99.90;;;;;;483394;245;28910;-72
2022/07/22 01:20:56;;;;;;;6.27;5.77;;;16.60;99.90;;;;;;483413;245;28795;-69
2022/07/22 01:22:57;;;;;;;6.60;6.07;;;16.50;99.90;;;;;;483390;246;28844;-71
2022/07/22 01:24:58;;;;;;;7.00;6.30;;;16.50;99.90;;;;;;483416;245;29284;-69
2022/07/22 01:26:59;;;;;;;7.10;6.40;;;16.60;99.90;;;;;;483340;245;29307;-69
2022/07/22 01:29:01;;;;;;;6.30;5.40;;;16.60;99.90;;;;;;483403;245;29388;-72
2022/07/22 01:31:02;;;;;;;7.70;7.00;;;16.60;99.90;;;;;;483430;243;28790;-68
2022/07/22 01:33:03;;;;;;;7.60;6.17;;;16.60;99.90;;;;;;483339;245;29446;-70
2022/07/22 01:35:04;;;;;;;6.90;6.27;;;16.50;99.90;;;;;;483317;246;28829;-68
2022/07/22 01:37:06;;;;;;;6.90;6.30;;;16.50;99.90;;;;;;483372;245;28853;-70
2022/07/22 01:39:07;;;;;;;6.33;5.73;;;16.40;99.90;;;;;;483403;245;28908;-68
2022/07/22 01:41:08;;;;;;;6.43;5.83;;;16.40;99.90;;;;;;483408;245;28891;-69
2022/07/22 01:43:09;;;;;;;7.50;6.60;;;16.40;99.90;;;;;;483382;245;28831;-70
2022/07/22 01:45:11;;;;;;;7.07;6.43;;;16.40;99.90;;;;;;483414;245;28786;-68
2022/07/22 01:47:12;;;;;;;6.77;6.23;;;16.30;99.90;;;;;;483316;245;28813;-69
2022/07/22 01:49:14;;;;;;;7.20;6.50;;;16.30;99.90;;;;;;483405;245;30435;-69
2022/07/22 01:51:14;;;;;;;7.50;6.40;;;16.30;99.90;;;;;;483334;245;29374;-68
2022/07/22 01:53:16;;;;;;;6.90;6.30;;;16.30;99.90;;;;;;483403;245;29388;-71
2022/07/22 01:55:17;;;;;;;6.60;5.73;;;16.40;99.90;;;;;;483404;245;29392;-68
2022/07/22 01:57:18;;;;;;;6.57;5.70;;;16.40;99.90;;;;;;483322;246;28822;-70
2022/07/22 01:59:19;;;;;;;6.80;6.20;;;16.40;99.90;;;;;;483405;246;28820;-69
2022/07/22 02:01:21;;;;;;;6.20;5.70;;;16.30;99.90;;;;;;483410;245;28882;-70
2022/07/22 02:03:22;;;;;;;6.87;6.27;;;16.30;99.90;;;;;;483404;245;28816;-71
2022/07/22 02:05:23;;;;;;;6.40;5.80;;;16.30;99.90;;;;;;483368;246;28805;-68
2022/07/22 02:07:25;;;;;;;6.57;5.97;;;16.30;99.90;;;;;;483323;245;28839;-69
2022/07/22 02:09:26;;;;;;;8.00;7.20;;;16.20;99.90;;;;;;483369;245;28822;-72
2022/07/22 02:11:27;;;;;;;6.57;6.07;;;16.10;99.90;;;;;;483408;245;28976;-69
2022/07/22 02:13:28;;;;;;;6.53;5.93;;;16.10;99.90;;;;;;483386;245;28848;-70
2022/07/22 02:15:29;;;;;;;7.60;6.20;;;16.10;99.90;;;;;;483381;245;29322;-68
2022/07/22 02:17:31;;;;;;;6.30;5.80;;;16.10;99.90;;;;;;483332;245;29433;-68
2022/07/22 02:19:32;;;;;;;6.40;5.80;;;16.10;99.90;;;;;;483413;245;29141;-69
2022/07/22 02:21:33;;;;;;;6.90;5.97;;;16.00;99.90;;;;;;483398;245;28944;-69
2022/07/22 02:23:34;;;;;;;6.80;6.20;;;16.00;99.90;;;;;;483419;245;28832;-70
2022/07/22 02:25:36;;;;;;;5.97;5.47;;;16.00;99.90;;;;;;483423;245;28789;-69
2022/07/22 02:27:37;;;;;;;6.63;6.03;;;16.10;99.90;;;;;;483296;245;28909;-70
2022/07/22 02:29:38;;;;;;;5.63;5.20;;;16.00;99.90;;;;;;483423;245;29162;-68
2022/07/22 02:31:39;;;;;;;5.80;5.30;;;16.00;99.90;;;;;;483399;243;28804;-69
2022/07/22 02:33:41;;;;;;;5.83;5.43;;;16.00;99.90;;;;;;483404;245;28884;-69
2022/07/22 02:35:42;;;;;;;6.13;5.63;;;16.00;99.90;;;;;;483305;245;28793;-68
2022/07/22 02:37:43;;;;;;;6.70;6.13;;;16.00;99.90;;;;;;483305;245;28911;-69
2022/07/22 02:39:44;;;;;;;6.60;6.00;;;16.00;99.90;;;;;;483417;245;29298;-70
2022/07/22 02:41:46;;;;;;;6.87;6.27;;;15.80;99.90;;;;;;483386;245;29269;-68
2022/07/22 02:43:47;;;;;;;6.83;6.23;;;15.90;99.90;;;;;;483398;245;29412;-69
2022/07/22 02:45:48;;;;;;;6.83;6.13;;;15.80;99.90;;;;;;483367;245;28896;-70
2022/07/22 02:47:49;;;;;;;6.80;6.17;;;15.90;99.90;;;;;;483277;245;28837;-69
2022/07/22 02:49:51;;;;;;;6.33;5.73;;;15.70;99.90;;;;;;483450;246;28834;-72
2022/07/22 02:51:52;;;;;;;6.03;5.43;;;15.70;99.90;;;;;;483419;245;28793;-69
2022/07/22 02:53:53;;;;;;;6.57;5.97;;;15.70;99.90;;;;;;483400;245;28818;-69
2022/07/22 02:55:54;;;;;;;6.57;5.97;;;15.60;99.90;;;;;;483368;245;28936;-69
2022/07/22 02:57:56;;;;;;;6.77;6.10;;;15.60;99.90;;;;;;483278;245;28817;-69
2022/07/22 02:59:57;;;;;;;6.33;5.73;;;15.60;99.90;;;;;;483398;245;28853;-70
2022/07/22 03:01:58;;;;;;;6.53;5.93;;;15.60;99.90;;;;;;483432;245;28860;-68
2022/07/22 03:03:59;;;;;;;6.37;5.87;;;15.70;99.90;;;;;;483440;245;29299;-69
2022/07/22 03:06:01;;;;;;;5.90;5.30;;;15.70;99.90;;;;;;483390;245;29273;-69
2022/07/22 03:08:02;;;;;;;6.60;6.00;;;15.70;99.90;;;;;;483384;245;29323;-69
2022/07/22 03:10:03;;;;;;;6.20;5.60;;;15.60;99.90;;;;;;483441;245;29314;-71
2022/07/22 03:12:04;;;;;;;6.93;5.93;;;15.60;99.90;;;;;;483437;245;28824;-68
2022/07/22 03:14:06;;;;;;;7.17;6.50;;;15.60;99.90;;;;;;483422;245;28842;-70
2022/07/22 03:16:07;;;;;;;6.90;6.20;;;15.60;99.90;;;;;;483300;245;28816;-72
2022/07/22 03:18:08;;;;;;;6.33;5.73;;;15.60;99.90;;;;;;483411;246;28805;-69
2022/07/22 03:20:09;;;;;;;6.30;5.80;;;15.60;99.90;;;;;;483412;245;28813;-71
2022/07/22 03:22:11;;;;;;;6.03;5.53;;;15.70;99.90;;;;;;483410;245;28796;-68
2022/07/22 03:24:12;;;;;;;6.47;5.87;;;15.70;99.90;;;;;;483399;245;28836;-69
2022/07/22 03:26:13;;;;;;;6.17;5.67;;;15.70;99.90;;;;;;483331;244;28866;-69
2022/07/22 03:28:14;;;;;;;6.10;5.50;;;15.70;99.90;;;;;;483384;245;29320;-70
2022/07/22 03:30:16;;;;;;;6.20;5.30;;;15.60;99.90;;;;;;483431;245;29354;-73
2022/07/22 03:32:17;;;;;;;6.10;5.60;;;15.60;99.90;;;;;;483419;246;29295;-68
2022/07/22 03:34:18;;;;;;;6.40;5.80;;;15.60;99.90;;;;;;483367;245;29414;-69
2022/07/22 03:36:19;;;;;;;6.97;6.27;;;15.60;99.90;;;;;;483139;245;28815;-68
2022/07/22 03:38:21;;;;;;;6.50;5.90;;;15.30;99.90;;;;;;483381;245;28894;-68
2022/07/22 03:40:22;;;;;;;6.70;6.10;;;15.20;99.90;;;;;;483432;246;28824;-72
2022/07/22 03:42:23;;;;;;;6.10;5.60;;;15.20;99.90;;;;;;483422;245;28794;-68
2022/07/22 03:44:24;;;;;;;6.20;5.70;;;15.30;99.90;;;;;;483400;245;28832;-69
2022/07/22 03:46:26;;;;;;;5.90;5.40;;;15.30;99.90;;;;;;483337;246;28820;-68
2022/07/22 03:48:27;;;;;;;6.03;5.43;;;15.30;99.90;;;;;;483384;246;28828;-69
2022/07/22 03:50:28;;;;;;;6.20;5.70;;;15.20;99.90;;;;;;483390;245;29309;-72
2022/07/22 03:52:29;;;;;;;6.20;5.60;;;15.30;99.90;;;;;;483383;245;29266;-68
2022/07/22 03:54:31;;;;;;;6.50;5.90;;;15.30;99.90;;;;;;483330;246;29308;-69
2022/07/22 03:56:32;;;;;;;6.80;6.20;;;15.30;99.90;;;;;;483157;245;29258;-69
2022/07/22 03:58:33;;;;;;;6.50;5.90;;;15.40;99.90;;;;;;483137;245;28791;-69
2022/07/22 04:00:34;;;;;;;6.83;6.10;;;15.40;99.90;;;;;;483274;245;28837;-71
2022/07/22 04:02:36;;;;;;;6.10;5.60;;;15.40;99.90;;;;;;483397;245;28873;-68
2022/07/22 04:04:37;;;;;;;6.10;5.60;;;15.30;99.90;;;;;;483376;246;28947;-68
2022/07/22 04:06:38;;;;;;;6.00;5.40;;;15.30;99.90;;;;;;483328;245;28826;-68
2022/07/22 04:08:40;;;;;;;5.90;5.40;;;15.30;99.90;;;;;;483408;245;28786;-69
2022/07/22 04:10:41;;;;;;;6.13;5.27;;;15.20;99.90;;;;;;483403;246;28951;-70
2022/07/22 04:12:42;;;;;;;6.70;5.53;;;15.30;99.90;;;;;;483390;245;28930;-68
2022/07/22 04:14:43;;;;;;;6.50;5.50;;;15.30;99.90;;;;;;483388;246;28825;-69
2022/07/22 04:16:45;;;;;;;6.30;5.70;;;15.30;99.90;;;;;;483295;245;29190;-68
2022/07/22 04:18:46;;;;;;;6.33;5.73;;;15.20;99.90;;;;;;483401;245;28850;-69
2022/07/22 04:20:47;;;;;;;6.30;5.80;;;15.10;99.90;;;;;;483409;245;29298;-70
2022/07/22 04:22:48;;;;;;;6.67;6.07;;;15.10;99.90;;;;;;483407;245;29239;-69
2022/07/22 04:24:50;;;;;;;5.93;5.43;;;15.00;99.90;;;;;;483399;245;29298;-70
2022/07/22 04:26:51;;;;;;;5.70;5.20;;;15.00;99.90;;;;;;483320;245;30407;-68
2022/07/22 04:28:52;;;;;;;6.63;6.03;;;15.10;99.90;;;;;;483416;245;28720;-68
2022/07/22 04:30:53;;;;;;;6.97;6.30;;;15.20;99.90;;;;;;483417;246;28837;-71
2022/07/22 04:32:55;;;;;;;6.03;5.53;;;15.30;99.90;;;;;;483401;245;28910;-68
2022/07/22 04:34:56;;;;;;;6.53;5.83;;;15.50;99.90;;;;;;483220;245;28853;-69
2022/07/22 04:36:57;;;;;;;5.90;5.33;;;15.60;99.90;;;;;;483309;245;28840;-69
2022/07/22 04:38:58;;;;;;;6.90;6.30;;;15.60;99.90;;;;;;483422;245;28795;-69
2022/07/22 04:41:00;;;;;;;6.27;5.77;;;15.70;99.90;;;;;;483407;243;28821;-69
2022/07/22 04:43:01;;;;;;;6.40;5.90;;;15.80;99.90;;;;;;483394;245;28791;-68
2022/07/22 04:45:02;;;;;;;6.57;5.97;;;15.70;99.90;;;;;;483392;245;28826;-69
2022/07/22 04:47:03;;;;;;;6.47;5.87;;;15.70;99.90;;;;;;483301;245;30101;-69
2022/07/22 04:49:05;;;;;;;6.80;6.20;;;15.70;99.90;;;;;;483398;245;29239;-70
2022/07/22 04:51:06;;;;;;;6.63;6.03;;;15.70;99.90;;;;;;483397;245;29300;-71
2022/07/22 04:53:07;;;;;;;6.33;5.73;;;15.80;99.90;;;;;;483383;245;28819;-68
2022/07/22 04:55:08;;;;;;;7.77;6.97;;;15.90;99.90;;;;;;483385;245;28815;-69
2022/07/22 04:57:10;;;;;;;7.60;6.43;;;16.00;99.90;;;;;;483308;245;28816;-68
2022/07/22 04:59:11;;;;;;;7.40;6.60;;;16.10;99.90;;;;;;483412;245;28779;-70
2022/07/22 05:01:12;;;;;;;6.90;6.20;;;16.20;99.90;;;;;;483287;245;28909;-73
2022/07/22 05:03:13;;;;;;;8.53;7.37;;;16.30;99.90;;;;;;483385;245;28889;-68
2022/07/22 05:05:15;;;;;;;7.63;6.83;;;16.30;99.90;;;;;;483395;245;28852;-70
2022/07/22 05:07:16;;;;;;;11.87;8.03;;;16.30;99.90;;;;;;483324;245;28783;-69
2022/07/22 05:09:17;;;;;;;11.50;8.30;;;16.30;99.90;;;;;;483384;246;28941;-68
2022/07/22 05:11:18;;;;;;;13.10;9.27;;;16.20;99.90;;;;;;483420;245;29299;-71
2022/07/22 05:13:20;;;;;;;14.47;10.30;;;16.10;99.90;;;;;;483420;246;29245;-69
2022/07/22 05:15:21;;;;;;;13.53;10.13;;;16.10;99.90;;;;;;483389;245;28905;-69
2022/07/22 05:17:22;;;;;;;12.00;9.60;;;16.00;99.90;;;;;;483343;246;28759;-68
2022/07/22 05:19:23;;;;;;;13.37;9.00;;;16.00;99.90;;;;;;483389;245;28879;-69
2022/07/22 05:21:25;;;;;;;16.77;9.30;;;16.00;99.90;;;;;;483415;245;28837;-71
2022/07/22 05:23:26;;;;;;;10.27;8.67;;;16.10;99.90;;;;;;483398;245;28804;-68
2022/07/22 05:25:27;;;;;;;12.40;9.87;;;16.10;99.90;;;;;;483399;245;28845;-70
2022/07/22 05:27:29;;;;;;;15.33;9.30;;;16.10;99.90;;;;;;483360;245;29459;-69
2022/07/22 05:29:30;;;;;;;12.13;10.10;;;16.20;99.90;;;;;;483400;245;29256;-69
2022/07/22 05:31:31;;;;;;;13.27;9.23;;;16.20;99.90;;;;;;483399;245;28819;-69
2022/07/22 05:33:32;;;;;;;11.50;8.30;;;16.30;99.90;;;;;;483393;245;28793;-69
2022/07/22 05:35:34;;;;;;;14.50;9.53;;;16.30;99.90;;;;;;483266;245;28826;-69
2022/07/22 05:37:35;;;;;;;12.47;9.43;;;16.30;99.90;;;;;;483349;245;28809;-68
2022/07/22 05:39:36;;;;;;;15.80;9.87;;;16.30;99.90;;;;;;483410;245;28877;-69
2022/07/22 05:41:38;;;;;;;11.57;10.13;;;16.40;99.90;;;;;;483368;245;28824;-70
2022/07/22 05:43:39;;;;;;;14.83;10.10;;;16.30;99.90;;;;;;483412;245;28791;-69
2022/07/22 05:45:40;;;;;;;14.13;10.47;;;16.30;99.90;;;;;;483404;245;29377;-69
2022/07/22 05:47:41;;;;;;;11.03;9.70;;;16.30;99.90;;;;;;483356;245;31101;-69
2022/07/22 05:49:42;;;;;;;14.40;10.37;;;16.40;99.90;;;;;;483413;245;28795;-70
2022/07/22 05:51:44;;;;;;;17.37;10.57;;;16.30;99.90;;;;;;483428;245;28873;-70
2022/07/22 05:53:45;;;;;;;10.93;9.47;;;16.30;99.90;;;;;;483452;245;28789;-69
2022/07/22 05:55:46;;;;;;;12.13;10.67;;;16.40;99.90;;;;;;483438;245;28743;-69
2022/07/22 05:57:47;;;;;;;14.43;9.93;;;16.30;99.90;;;;;;483397;245;28735;-72
2022/07/22 05:59:49;;;;;;;15.60;9.80;;;16.40;99.90;;;;;;483453;245;29445;-69
2022/07/22 06:01:50;;;;;;;13.63;9.80;;;16.50;99.90;;;;;;483420;245;29368;-69
2022/07/22 06:03:51;;;;;;;14.90;9.17;;;16.50;99.90;;;;;;483442;245;29147;-68
2022/07/22 06:05:52;;;;;;;11.90;9.03;;;16.50;99.90;;;;;;483405;245;28839;-69
2022/07/22 06:07:54;;;;;;;13.73;10.20;;;16.50;99.90;;;;;;483373;245;28734;-72
2022/07/22 06:09:55;;;;;;;15.53;9.47;;;16.60;99.90;;;;;;483409;245;28894;-68
2022/07/22 06:11:56;;;;;;;10.47;9.00;;;16.50;99.90;;;;;;483413;246;28805;-70
2022/07/22 06:13:57;;;;;;;16.33;9.00;;;16.60;99.90;;;;;;483409;245;28884;-68
2022/07/22 06:15:59;;;;;;;13.10;9.40;;;16.70;99.90;;;;;;483406;246;28812;-75
2022/07/22 06:18:00;;;;;;;11.60;9.57;;;16.70;99.90;;;;;;483382;245;28756;-72
2022/07/22 06:20:01;;;;;;;13.30;10.13;;;16.80;99.90;;;;;;483406;245;28824;-68
2022/07/22 06:22:02;;;;;;;9.90;8.60;;;16.80;99.90;;;;;;483397;245;28832;-69
2022/07/22 06:24:04;;;;;;;9.70;7.47;;;16.90;99.90;;;;;;483392;245;30369;-68
2022/07/22 06:26:05;;;;;;;8.80;8.00;;;17.10;99.90;;;;;;483382;245;29347;-68
2022/07/22 06:28:06;;;;;;;14.13;9.10;;;17.20;99.90;;;;;;483409;245;29411;-71
2022/07/22 06:30:08;;;;;;;8.90;8.00;;;17.30;99.90;;;;;;483420;245;28860;-68
2022/07/22 06:32:09;;;;;;;10.23;8.10;;;17.30;99.90;;;;;;483413;246;28827;-69
2022/07/22 06:34:10;;;;;;;9.10;7.53;;;17.40;99.90;;;;;;483411;245;28880;-68
2022/07/22 06:36:11;;;;;;;14.40;9.73;;;17.40;99.90;;;;;;483177;245;28844;-69
2022/07/22 06:38:13;;;;;;;11.27;9.13;;;17.40;99.90;;;;;;483422;245;28785;-72
2022/07/22 06:40:14;;;;;;;9.70;8.60;;;17.30;99.90;;;;;;483410;245;28851;-69
2022/07/22 06:42:15;;;;;;;12.40;9.30;;;17.30;99.90;;;;;;483401;246;28813;-69
2022/07/22 06:44:16;;;;;;;15.00;9.20;;;17.40;99.90;;;;;;483410;245;28793;-68
2022/07/22 06:46:18;;;;;;;10.33;7.90;;;17.50;99.90;;;;;;483336;245;29277;-68
2022/07/22 06:48:19;;;;;;;13.80;9.40;;;17.40;99.90;;;;;;483434;245;29290;-71
2022/07/22 06:50:20;;;;;;;10.93;8.03;;;17.30;99.90;;;;;;483413;245;28800;-69
2022/07/22 06:52:21;;;;;;;10.03;8.00;;;17.50;99.90;;;;;;483390;245;28860;-69
2022/07/22 06:54:23;;;;;;;10.33;8.43;;;17.70;99.90;;;;;;483399;245;28828;-68
2022/07/22 06:56:24;;;;;;;9.43;8.00;;;17.70;99.90;;;;;;483389;245;28813;-69
2022/07/22 06:58:25;;;;;;;13.00;8.57;;;17.80;99.90;;;;;;483436;245;28840;-70
2022/07/22 07:00:26;;;;;;;9.43;8.07;;;17.90;99.90;;;;;;483391;245;28880;-68
2022/07/22 07:02:28;;;;;;;9.70;8.17;;;18.00;99.90;;;;;;483377;245;28925;-69
2022/07/22 07:04:29;;;;;;;12.07;8.80;;;18.00;99.90;;;;;;483426;245;29851;-68
2022/07/22 07:06:30;;;;;;;10.73;7.80;;;17.90;99.90;;;;;;483359;245;29241;-69
2022/07/22 07:08:31;;;;;;;9.83;8.10;;;18.00;99.90;;;;;;483433;245;29331;-71
2022/07/22 07:10:33;;;;;;;9.87;7.90;;;18.10;99.90;;;;;;483404;246;28801;-71
2022/07/22 07:12:34;;;;;;;12.30;8.40;;;18.10;99.90;;;;;;483392;245;28892;-69
2022/07/22 07:14:35;;;;;;;13.93;8.77;;;18.30;99.90;;;;;;483421;245;28797;-69
2022/07/22 07:16:36;;;;;;;9.77;8.37;;;18.20;99.90;;;;;;483380;245;28782;-69
2022/07/22 07:18:38;;;;;;;14.10;8.30;;;18.00;99.90;;;;;;483114;245;28834;-72
2022/07/22 07:20:39;;;;;;;12.90;8.80;;;18.00;99.90;;;;;;483413;245;28934;-68
2022/07/22 07:22:40;;;;;;;9.73;7.77;;;18.20;99.90;;;;;;483394;245;28829;-69
2022/07/22 07:24:42;;;;;;;8.90;7.17;;;18.30;99.90;;;;;;483419;245;28918;-69
2022/07/22 07:26:43;;;;;;;14.07;8.50;;;18.50;99.90;;;;;;483377;245;30136;-69
2022/07/22 07:28:44;;;;;;;8.97;7.20;;;18.60;99.90;;;;;;483426;245;29291;-70
2022/07/22 07:30:45;;;;;;;9.00;8.10;;;18.60;99.90;;;;;;483411;245;29163;-69
2022/07/22 07:32:46;;;;;;;9.20;7.63;;;18.60;99.90;;;;;;483394;245;28928;-70
2022/07/22 07:34:48;;;;;;;8.43;7.50;;;18.50;99.90;;;;;;483288;245;28812;-69
2022/07/22 07:36:49;;;;;;;9.43;7.90;;;18.60;99.90;;;;;;483375;245;28784;-70
2022/07/22 07:38:50;;;;;;;11.40;8.30;;;18.70;99.90;;;;;;483434;245;28887;-71
2022/07/22 07:40:51;;;;;;;11.23;9.17;;;18.70;99.90;;;;;;483417;245;28788;-69
2022/07/22 07:42:53;;;;;;;11.03;8.57;;;18.60;99.90;;;;;;483417;245;28935;-70
2022/07/22 07:44:54;;;;;;;10.43;7.83;;;18.70;99.90;;;;;;483383;245;28786;-69
2022/07/22 07:46:55;;;;;;;8.03;7.00;;;18.90;99.90;;;;;;483346;245;29243;-69
2022/07/22 07:48:56;;;;;;;10.70;8.33;;;18.90;99.90;;;;;;483416;245;29320;-72
2022/07/22 07:50:58;;;;;;;12.93;8.33;;;18.90;99.90;;;;;;483408;245;29315;-70
2022/07/22 07:52:59;;;;;;;10.03;8.93;;;18.90;99.90;;;;;;483396;246;28858;-70
2022/07/22 07:55:00;;;;;;;10.40;8.97;;;18.90;99.90;;;;;;483402;245;28823;-69
2022/07/22 07:57:01;;;;;;;10.80;7.40;;;19.20;99.90;;;;;;483352;245;28881;-69
2022/07/22 07:59:03;;;;;;;9.33;7.70;;;19.30;99.90;;;;;;483411;245;28816;-71
2022/07/22 08:01:04;;;;;;;7.90;7.10;;;19.20;99.90;;;;;;483408;245;28978;-69
2022/07/22 08:03:05;;;;;;;7.60;6.80;;;19.30;99.90;;;;;;483370;245;28865;-69
2022/07/22 08:05:06;;;;;;;12.93;8.33;;;19.40;99.90;;;;;;483388;245;28792;-69
2022/07/22 08:07:08;;;;;;;10.97;7.70;;;19.50;99.90;;;;;;483363;245;29424;-69
2022/07/22 08:09:10;;;;;;;9.83;8.10;;;19.70;99.90;;;;;;483423;245;29444;-72
2022/07/22 08:11:10;;;;;;;8.97;8.10;;;19.80;99.90;;;;;;483360;245;29270;-69
2022/07/22 08:13:11;;;;;;;9.10;7.77;;;19.60;99.90;;;;;;483411;245;28823;-70
2022/07/22 08:15:13;;;;;;;9.80;7.47;;;19.40;99.90;;;;;;483372;245;28777;-69
2022/07/22 08:17:14;;;;;;;10.73;8.40;;;19.60;99.90;;;;;;483368;245;28794;-70
2022/07/22 08:19:15;;;;;;;9.40;7.90;;;19.70;99.90;;;;;;483416;245;28910;-71
2022/07/22 08:21:16;;;;;;;9.00;8.10;;;19.80;99.90;;;;;;483420;245;28796;-69
2022/07/22 08:23:18;;;;;;;8.73;7.77;;;20.00;99.90;;;;;;483402;245;28845;-69
2022/07/22 08:25:19;;;;;;;8.30;7.03;;;20.10;99.90;;;;;;483399;245;28784;-69
2022/07/22 08:27:20;;;;;;;9.10;7.87;;;20.10;99.90;;;;;;483350;245;28786;-69
2022/07/22 08:29:21;;;;;;;8.90;8.00;;;20.00;99.90;;;;;;483395;245;28913;-71
2022/07/22 08:31:23;;;;;;;8.03;7.23;;;20.10;99.90;;;;;;483387;245;29272;-68
2022/07/22 08:33:24;;;;;;;7.53;6.83;;;20.10;99.90;;;;;;483335;245;29655;-70
2022/07/22 08:35:25;;;;;;;9.17;8.27;;;20.40;99.90;;;;;;483332;245;30103;-69
2022/07/22 08:37:26;;;;;;;10.93;7.10;;;20.30;99.90;;;;;;483370;245;28788;-70
2022/07/22 08:39:28;;;;;;;9.67;7.97;;;20.30;99.90;;;;;;483412;245;28825;-69
2022/07/22 08:41:29;;;;;;;8.93;8.03;;;20.50;99.90;;;;;;483417;245;28790;-70
2022/07/22 08:43:30;;;;;;;10.93;7.70;;;20.40;99.90;;;;;;483410;245;28868;-70
2022/07/22 08:45:31;;;;;;;8.80;7.40;;;20.40;99.90;;;;;;483437;245;28786;-69
2022/07/22 08:47:33;;;;;;;9.83;7.73;;;20.50;99.90;;;;;;483379;245;28880;-69
2022/07/22 08:49:34;;;;;;;11.00;7.90;;;20.70;99.90;;;;;;483414;245;30140;-72
2022/07/22 08:51:35;;;;;;;10.77;7.80;;;21.00;99.90;;;;;;483360;246;29386;-69
2022/07/22 08:53:37;;;;;;;7.97;7.27;;;21.10;99.90;;;;;;483406;245;28921;-70
2022/07/22 08:55:38;;;;;;;8.20;6.70;;;21.10;99.90;;;;;;483386;245;28812;-69
2022/07/22 08:57:39;;;;;;;9.37;8.10;;;21.20;99.90;;;;;;483334;245;28885;-70
2022/07/22 08:59:40;;;;;;;8.70;7.67;;;21.10;99.90;;;;;;483417;245;28803;-72
2022/07/22 09:01:42;;;;;;;7.93;7.13;;;20.90;99.90;;;;;;483421;245;28780;-69
2022/07/22 09:03:43;;;;;;;8.83;7.93;;;21.10;99.90;;;;;;483418;245;28927;-70
2022/07/22 09:05:44;;;;;;;11.03;8.60;;;21.20;99.90;;;;;;483381;245;28791;-69
2022/07/22 09:07:46;;;;;;;7.90;7.20;;;21.20;99.90;;;;;;483333;245;28854;-70
2022/07/22 09:09:47;;;;;;;8.83;8.03;;;21.30;99.90;;;;;;483405;245;28903;-72
2022/07/22 09:11:48;;;;;;;8.67;7.77;;;21.40;99.90;;;;;;483423;245;29428;-70
2022/07/22 09:13:49;;;;;;;9.73;8.50;;;21.50;99.90;;;;;;483401;245;29284;-70
2022/07/22 09:15:50;;;;;;;8.20;7.37;;;21.60;99.90;;;;;;483376;245;29302;-69
2022/07/22 09:17:52;;;;;;;8.20;7.20;;;21.30;99.90;;;;;;483332;245;28911;-69
2022/07/22 09:19:53;;;;;;;7.27;6.57;;;21.40;99.90;;;;;;483376;246;28824;-69
2022/07/22 09:21:54;;;;;;;8.03;7.13;;;21.50;99.90;;;;;;483398;245;28781;-70
2022/07/22 09:23:55;;;;;;;8.50;7.00;;;21.70;99.90;;;;;;483403;245;28829;-70
2022/07/22 09:25:57;;;;;;;9.57;8.40;;;21.70;99.90;;;;;;483398;245;28778;-69
2022/07/22 09:27:58;;;;;;;7.70;6.90;;;22.00;99.90;;;;;;483146;245;25739;-70
2022/07/22 09:29:59;;;;;;;6.97;6.37;;;22.00;99.90;;;;;;483419;245;27503;-69
2022/07/22 09:32:01;;;;;;;8.27;7.27;;;21.80;99.90;;;;;;483421;245;28880;-70
2022/07/22 09:34:02;;;;;;;7.17;6.33;;;21.90;99.90;;;;;;483416;246;28908;-70
2022/07/22 09:36:03;;;;;;;7.90;6.83;;;22.00;99.90;;;;;;483291;245;29222;-75
2022/07/22 09:38:04;;;;;;;7.33;6.73;;;22.20;99.90;;;;;;483398;245;29315;-70
2022/07/22 09:40:05;;;;;;;6.67;6.03;;;22.30;99.90;;;;;;483424;246;29234;-70
2022/07/22 09:42:07;;;;;;;7.00;6.30;;;22.40;99.90;;;;;;483406;245;28862;-70
2022/07/22 09:44:08;;;;;;;7.30;6.60;;;22.40;99.90;;;;;;483430;245;28835;-72
2022/07/22 09:46:09;;;;;;;7.83;7.13;;;22.40;99.90;;;;;;483358;245;28784;-69
2022/07/22 09:48:10;;;;;;;7.93;6.90;;;22.30;99.90;;;;;;483423;245;28832;-70
2022/07/22 09:50:12;;;;;;;7.80;7.00;;;22.30;99.90;;;;;;483446;245;28784;-69
2022/07/22 09:52:13;;;;;;;7.53;6.80;;;22.40;99.90;;;;;;483419;245;28802;-70
2022/07/22 09:54:14;;;;;;;7.83;6.77;;;22.80;99.90;;;;;;483439;245;28835;-72
2022/07/22 09:56:15;;;;;;;7.97;7.20;;;22.70;99.90;;;;;;483323;245;28790;-69
2022/07/22 09:58:17;;;;;;;8.30;7.50;;;22.60;99.90;;;;;;483401;245;28857;-71
2022/07/22 10:00:18;;;;;;;9.63;8.40;;;22.60;99.90;;;;;;483395;245;29287;-69
2022/07/22 10:02:19;;;;;;;7.87;7.07;;;22.70;99.90;;;;;;483389;245;29260;-69
2022/07/22 10:04:20;;;;;;;7.90;7.17;;;23.00;99.90;;;;;;483433;245;29410;-72
2022/07/22 10:06:22;;;;;;;7.77;6.97;;;23.00;99.90;;;;;;483358;245;29575;-70
2022/07/22 10:08:23;;;;;;;7.13;6.43;;;23.00;99.90;;;;;;483408;245;28816;-70
2022/07/22 10:10:24;;;;;;;7.17;6.57;;;22.90;99.90;;;;;;483402;245;28783;-70
2022/07/22 10:12:27;;;;;;;7.30;6.60;;;23.00;99.90;;;;;;483368;245;28826;-69
2022/07/22 10:14:27;;;;;;;6.60;6.00;;;23.20;99.90;;;;;;483327;246;28870;-73
2022/07/22 10:16:28;;;;;;;7.30;6.27;;;23.00;99.90;;;;;;483374;245;28799;-70
2022/07/22 10:18:30;;;;;;;8.30;6.97;;;23.20;99.90;;;;;;483380;245;28829;-69
2022/07/22 10:20:31;;;;;;;7.80;7.10;;;23.20;99.90;;;;;;483341;246;28777;-69
2022/07/22 10:22:32;;;;;;;7.07;6.40;;;23.20;99.90;;;;;;483353;246;28786;-69
2022/07/22 10:24:33;;;;;;;8.33;6.77;;;23.20;99.90;;;;;;483403;245;29388;-71
2022/07/22 10:26:34;;;;;;;6.70;6.10;;;23.20;99.90;;;;;;483350;245;29241;-69